Time;durP1;ratioP1;P1;durP2;ratioP2;P2;SDS_P1;SDS_P2;PMS_P1;PMS_P2;Temp;Humidity;BMP_temperature;BMP_pressure;BME280_temperature;BME280_humidity;BME280_pressure;Samples;Min_cycle;Max_cycle;Signal;HPM_P1;HPM_P2
2022/11/21 00:00:28;;;;;;;44.60;20.62;;;;;;;-3.63;77.75;99979.58;1634404;86;20892;-79
2022/11/21 00:03:13;;;;;;;;;;;;;;;-3.64;77.78;99978.30;1627096;86;20986;-80
2022/11/21 00:05:58;;;;;;;42.85;19.07;;;;;;;-3.64;77.76;99979.56;1624196;86;20177;-79
2022/11/21 00:08:43;;;;;;;44.95;18.05;;;;;;;-3.67;77.69;99980.33;1620567;86;20970;-79
2022/11/21 00:11:28;;;;;;;38.48;19.37;;;;;;;-3.68;77.72;99975.68;1625800;86;20954;-79
2022/11/21 00:14:13;;;;;;;42.87;20.63;;;;;;;-3.68;77.78;99971.89;1617378;86;20946;-79
2022/11/21 00:16:58;;;;;;;45.17;20.83;;;;;;;-3.70;77.70;99973.52;1625980;84;21675;-80
2022/11/21 00:19:44;;;;;;;45.73;20.40;;;;;;;-3.73;77.72;99978.47;1625180;86;20942;-79
2022/11/21 00:22:31;;;;;;;43.92;19.10;;;;;;;-3.72;77.76;99981.45;1623261;86;21413;-79
2022/11/21 00:25:16;;;;;;;40.88;17.98;;;;;;;-3.72;77.78;99984.38;1619339;86;21927;-79
2022/11/21 00:28:01;;;;;;;39.98;19.42;;;;;;;-3.73;77.70;99976.35;1623421;86;20946;-79
2022/11/21 00:30:46;;;;;;;44.58;20.90;;;;;;;-3.77;77.59;99977.92;1622939;86;20939;-79
2022/11/21 00:33:34;;;;;;;46.68;19.42;;;;;;;-3.81;77.68;99975.25;1623744;87;21630;-78
2022/11/21 00:36:18;;;;;;;44.55;18.98;;;;;;;-3.83;77.71;99985.31;1617861;86;21058;-78
2022/11/21 00:39:04;;;;;;;40.03;18.35;;;;;;;-3.85;77.67;99969.66;1625309;84;21626;-79
2022/11/21 00:41:49;;;;;;;33.78;17.40;;;;;;;-3.87;77.65;99968.34;1620408;85;21077;-78
2022/11/21 00:44:34;;;;;;;41.43;19.20;;;;;;;-3.92;77.54;99969.01;1618733;86;21609;-79
2022/11/21 00:47:19;;;;;;;38.02;16.90;;;;;;;-3.92;77.73;99970.27;1621874;85;21821;-79
2022/11/21 00:50:05;;;;;;;38.90;18.53;;;;;;;-3.93;77.66;99971.94;1623378;86;21085;-78
2022/11/21 00:52:55;;;;;;;41.08;18.15;;;;;;;-3.95;77.67;99966.39;1617944;85;21155;-78
2022/11/21 00:55:41;;;;;;;41.60;16.90;;;;;;;-3.97;77.61;99968.86;1609223;88;21074;-79
2022/11/21 00:58:27;;;;;;;33.83;16.60;;;;;;;-3.98;77.65;99967.55;1608541;87;37557;-79
2022/11/21 01:01:14;;;;;;;39.08;17.37;;;;;;;-4.00;77.68;99973.81;1609790;87;21544;-79
2022/11/21 01:04:00;;;;;;;41.08;18.23;;;;;;;-4.01;77.66;99977.15;1610790;86;21724;-79
2022/11/21 01:06:45;;;;;;;40.48;19.37;;;;;;;-4.01;77.66;99975.89;1609178;87;21816;-79
2022/11/21 01:09:30;;;;;;;38.28;17.40;;;;;;;-4.05;77.58;99974.07;1620053;86;21073;-79
2022/11/21 01:12:15;;;;;;;36.03;16.20;;;;;;;-4.07;77.58;99971.50;1623209;86;21436;-79
2022/11/21 01:15:00;;;;;;;41.42;18.85;;;;;;;-4.10;77.57;99965.09;1619482;87;21118;-78
2022/11/21 01:17:45;;;;;;;42.95;18.60;;;;;;;-4.12;77.63;99960.39;1622562;86;21684;-80
2022/11/21 01:20:30;;;;;;;38.17;18.33;;;;;;;-4.14;77.60;99958.62;1623242;84;21081;-79
2022/11/21 01:23:16;;;;;;;38.95;17.45;;;;;;;-4.16;77.58;99953.53;1621809;86;21518;-79
2022/11/21 01:26:03;;;;;;;36.38;17.37;;;;;;;-4.17;77.58;99959.83;1621706;86;21114;-79
2022/11/21 01:28:49;;;;;;;39.65;18.23;;;;;;;-4.17;77.59;99960.69;1627096;85;21834;-80
2022/11/21 01:31:35;;;;;;;36.70;17.25;;;;;;;-4.14;77.64;99968.73;1621214;86;21526;-79
2022/11/21 01:34:19;;;;;;;35.00;17.52;;;;;;;-4.16;77.55;99956.49;1627900;84;21541;-78
2022/11/21 01:37:04;;;;;;;41.30;17.57;;;;;;;-4.21;77.56;99957.61;1625818;86;21427;-79
2022/11/21 01:39:50;;;;;;;36.30;16.73;;;;;;;-4.22;77.57;99963.86;1623445;87;21354;-78
2022/11/21 01:42:51;;;;;;;37.45;17.02;;;;;;;-4.24;77.53;99963.81;1623379;85;21590;-79
2022/11/21 01:45:56;;;;;;;36.83;16.55;;;;;;;-4.27;77.47;99966.23;1609545;87;20994;-79
2022/11/21 01:49:03;;;;;;;38.08;16.97;;;;;;;-4.27;77.51;99964.12;1622599;85;21034;-79
2022/11/21 01:52:05;;;;;;;39.60;17.37;;;;;;;-4.36;77.41;99959.22;1624543;86;20975;-78
2022/11/21 01:54:56;;;;;;;37.13;16.55;;;;;;;-4.35;77.61;99957.56;1622115;86;21173;-79
2022/11/21 01:57:43;;;;;;;36.98;17.35;;;;;;;-4.29;77.64;99955.23;1623990;86;21029;-78
2022/11/21 02:00:34;;;;;;;32.13;16.45;;;;;;;-4.24;77.67;99950.34;1619981;86;20942;-79
2022/11/21 02:03:23;;;;;;;36.58;16.37;;;;;;;-4.20;77.68;99951.75;1612562;87;21000;-79
2022/11/21 02:06:10;;;;;;;36.55;17.67;;;;;;;-4.15;77.66;99953.13;1608662;87;21059;-80
2022/11/21 02:08:58;;;;;;;36.30;17.62;;;;;;;-4.11;77.70;99947.37;1609281;87;21468;-79
2022/11/21 02:12:03;;;;;;;35.55;16.97;;;;;;;-4.05;77.74;99943.38;1611568;87;20954;-79
2022/11/21 02:14:48;;;;;;;31.87;15.78;;;;;;;-4.00;77.72;99950.69;1612945;87;21283;-79
2022/11/21 02:17:33;;;;;;;36.60;16.73;;;;;;;-3.95;77.74;99947.05;1611940;87;20947;-79
2022/11/21 02:20:24;;;;;;;33.93;16.07;;;;;;;-3.91;77.77;99951.38;1610915;87;21613;-79
2022/11/21 02:23:31;;;;;;;34.95;16.57;;;;;;;-3.86;77.79;99945.21;1620795;86;20946;-79
2022/11/21 02:26:16;;;;;;;33.98;16.48;;;;;;;-3.80;77.85;99935.30;1623933;86;20982;-79
2022/11/21 02:29:01;;;;;;;29.23;15.35;;;;;;;-3.73;77.87;99938.05;1621831;86;20950;-79
2022/11/21 02:31:46;;;;;;;39.53;16.20;;;;;;;-3.67;77.86;99933.59;1611228;87;20967;-79
2022/11/21 02:34:32;;;;;;;34.33;15.70;;;;;;;-3.62;77.91;99937.08;1610548;87;20939;-79
2022/11/21 02:37:17;;;;;;;32.65;16.45;;;;;;;-3.55;77.99;99944.44;1610326;87;20934;-79
2022/11/21 02:40:10;;;;;;;37.33;18.00;;;;;;;-3.49;78.04;99942.95;1607341;87;20991;-79
2022/11/21 02:43:15;;;;;;;39.55;17.37;;;;;;;-3.41;78.10;99935.19;1612227;87;21381;-79
2022/11/21 02:46:00;;;;;;;34.83;16.32;;;;;;;-3.33;78.09;99935.41;1609531;85;20936;-80
2022/11/21 02:48:46;;;;;;;34.40;17.73;;;;;;;-3.26;78.10;99928.86;1613582;87;21476;-80
2022/11/21 02:51:31;;;;;;;35.48;17.73;;;;;;;-3.19;78.10;99929.48;1611759;87;21236;-79
2022/11/21 02:54:15;;;;;;;36.20;17.25;;;;;;;-3.15;78.09;99928.75;1610374;87;20962;-80
2022/11/21 02:57:01;;;;;;;35.25;17.02;;;;;;;-3.09;78.11;99918.37;1609795;87;21007;-80
2022/11/21 02:59:46;;;;;;;34.73;17.40;;;;;;;-3.04;78.10;99924.81;1612508;87;20960;-80
2022/11/21 03:02:31;;;;;;;32.23;16.77;;;;;;;-2.98;78.15;99920.33;1609017;87;20943;-80
2022/11/21 03:05:18;;;;;;;33.15;16.75;;;;;;;-2.93;78.14;99918.78;1611267;87;21048;-80
2022/11/21 03:08:04;;;;;;;34.50;17.42;;;;;;;-2.88;78.13;99914.70;1611249;86;20958;-80
2022/11/21 03:10:48;;;;;;;;;;;;;;;-2.85;78.14;99914.78;1612741;87;20959;-79
2022/11/21 03:13:33;;;;;;;29.95;16.07;;;;;;;-2.81;78.22;99915.31;1623782;86;20581;-80
2022/11/21 03:16:18;;;;;;;35.43;17.73;;;;;;;-2.76;78.21;99909.56;1625895;86;21364;-80
2022/11/21 03:19:03;;;;;;;31.40;17.23;;;;;;;-2.71;78.23;99914.73;1622563;85;20987;-80
2022/11/21 03:21:48;;;;;;;33.45;16.48;;;;;;;-2.66;78.26;99908.13;1627805;85;21393;-80
2022/11/21 03:24:33;;;;;;;35.55;16.35;;;;;;;-2.61;78.29;99904.03;1622881;87;21009;-79
2022/11/21 03:27:18;;;;;;;42.15;19.05;;;;;;;-2.56;78.30;99896.12;1626233;85;20975;-79
2022/11/21 03:30:04;;;;;;;38.23;18.20;;;;;;;-2.53;78.29;99902.52;1623983;86;20935;-78
2022/11/21 03:32:49;;;;;;;37.45;17.92;;;;;;;-2.49;78.34;99900.52;1622996;86;20958;-79
2022/11/21 03:35:34;;;;;;;38.08;18.23;;;;;;;-2.44;78.37;99895.16;1622946;86;21018;-80
2022/11/21 03:38:20;;;;;;;38.50;19.13;;;;;;;-2.38;78.40;99902.05;1624500;86;20979;-80
2022/11/21 03:41:28;;;;;;;38.05;18.73;;;;;;;-2.32;78.43;99900.08;1624296;86;20974;-79
2022/11/21 03:43:52;;;;;;;39.42;18.05;;;;;;;-2.27;78.41;99899.36;1624930;87;21436;-80
2022/11/21 03:46:41;;;;;;;38.05;19.07;;;;;;;-2.23;78.39;99899.88;1626000;85;20983;-80
2022/11/21 03:49:26;;;;;;;38.13;18.87;;;;;;;-2.21;78.45;99886.00;1621842;84;21021;-80
2022/11/21 03:52:11;;;;;;;37.67;18.50;;;;;;;-2.16;78.46;99884.42;1628220;84;21471;-80
2022/11/21 03:54:56;;;;;;;37.50;19.27;;;;;;;-2.13;78.44;99885.36;1624158;86;21547;-79
2022/11/21 03:57:41;;;;;;;44.17;20.53;;;;;;;-2.12;78.39;99879.87;1624758;85;20981;-80
2022/11/21 04:00:26;;;;;;;43.98;20.77;;;;;;;-2.14;78.37;99878.98;1624752;86;20978;-80
2022/11/21 04:03:11;;;;;;;39.88;20.02;;;;;;;-2.13;78.46;99873.95;1622606;86;20939;-80
2022/11/21 04:05:56;;;;;;;43.73;20.30;;;;;;;-2.10;78.54;99880.36;1619683;86;21061;-80
2022/11/21 04:08:41;;;;;;;40.28;19.07;;;;;;;-2.07;78.54;99872.80;1625293;86;20962;-80
2022/11/21 04:11:25;;;;;;;41.02;19.87;;;;;;;-2.02;78.60;99877.56;1622494;86;20980;-79
2022/11/21 04:14:10;;;;;;;39.38;20.12;;;;;;;-1.96;78.62;99873.45;1620750;86;21586;-79
2022/11/21 04:16:55;;;;;;;36.60;19.83;;;;;;;-1.91;78.64;99871.87;1621417;86;20979;-80
2022/11/21 04:19:40;;;;;;;36.55;18.57;;;;;;;-1.86;78.65;99867.36;1626339;86;20978;-80
2022/11/21 04:22:25;;;;;;;39.35;18.12;;;;;;;-1.84;78.58;99874.58;1625341;85;20942;-80
2022/11/21 04:25:12;;;;;;;39.75;19.00;;;;;;;-1.84;78.64;99874.58;1627859;86;21489;-78
2022/11/21 04:28:01;;;;;;;35.60;19.57;;;;;;;-1.80;78.59;99876.77;1623156;86;20975;-79
2022/11/21 04:30:47;;;;;;;48.30;21.77;;;;;;;-1.81;78.58;99867.05;1624258;86;20926;-79
2022/11/21 04:33:31;;;;;;;42.45;21.30;;;;;;;-1.79;78.64;99862.87;1619567;86;21020;-80
2022/11/21 04:36:17;;;;;;;42.75;19.57;;;;;;;-1.78;78.61;99853.59;1604587;88;21807;-80
2022/11/21 04:39:02;;;;;;;41.50;20.62;;;;;;;-1.78;78.65;99849.78;1622305;86;20930;-80
2022/11/21 04:41:47;;;;;;;39.20;19.70;;;;;;;-1.78;78.61;99851.05;1621943;86;21082;-79
2022/11/21 04:44:32;;;;;;;39.50;20.80;;;;;;;-1.83;78.56;99834.89;1623154;85;21482;-80
2022/11/21 04:47:17;;;;;;;38.73;18.90;;;;;;;-1.87;78.57;99833.12;1619386;86;21046;-80
2022/11/21 04:50:03;;;;;;;40.30;20.40;;;;;;;-1.87;78.65;99821.72;1623589;85;21316;-79
2022/11/21 04:52:53;;;;;;;41.25;19.98;;;;;;;-1.87;78.63;99824.25;1620494;86;28140;-79
2022/11/21 04:55:38;;;;;;;41.48;19.87;;;;;;;-1.89;78.66;99822.09;1621874;86;20930;-80
2022/11/21 04:58:23;;;;;;;36.53;19.57;;;;;;;-1.90;78.63;99821.66;1618584;85;20991;-80
2022/11/21 05:01:08;;;;;;;41.20;19.85;;;;;;;-1.93;78.60;99820.32;1621647;85;20939;-80
2022/11/21 05:03:53;;;;;;;40.33;19.57;;;;;;;-1.95;78.66;99818.16;1622133;85;20974;-80
2022/11/21 05:06:38;;;;;;;35.73;19.07;;;;;;;-1.96;78.69;99824.05;1623286;86;20957;-79
2022/11/21 05:09:23;;;;;;;34.48;19.05;;;;;;;-1.96;78.72;99821.52;1621123;86;21373;-77
2022/11/21 05:15:15;;;;;;;39.33;18.87;;;;;;;-1.98;78.71;99813.03;1619358;86;20962;-79
2022/11/21 05:17:59;;;;;;;35.33;19.07;;;;;;;-2.00;78.64;99804.13;1622063;86;20962;-79
2022/11/21 05:20:44;;;;;;;45.83;20.27;;;;;;;-2.02;78.71;99806.63;1621455;86;21407;-79
2022/11/21 05:23:30;;;;;;;40.30;20.12;;;;;;;-2.03;78.71;99801.13;1622594;86;20953;-80
2022/11/21 05:26:15;;;;;;;35.13;18.40;;;;;;;-2.02;78.79;99800.30;1621376;86;21022;-79
2022/11/21 05:29:00;;;;;;;35.13;19.52;;;;;;;-2.00;78.80;99806.66;1615627;86;21757;-79
2022/11/21 05:31:44;;;;;;;39.23;20.15;;;;;;;-1.96;78.84;99804.64;1621166;86;20964;-79
2022/11/21 05:34:29;;;;;;;38.63;19.90;;;;;;;-1.95;78.77;99801.70;1622060;86;21005;-79
2022/11/21 05:37:14;;;;;;;38.55;19.32;;;;;;;-1.95;78.78;99801.29;1613479;86;21384;-78
2022/11/21 05:39:59;;;;;;;40.10;19.52;;;;;;;-1.96;78.80;99804.64;1619722;85;21034;-78
2022/11/21 05:45:52;;;;;;;41.05;20.08;;;;;;;-1.92;78.81;99805.56;1621337;86;20962;-79
2022/11/21 05:48:36;;;;;;;39.78;19.40;;;;;;;-1.93;78.82;99799.64;1618950;86;21582;-79
2022/11/21 05:51:22;;;;;;;36.53;19.85;;;;;;;-1.92;78.83;99794.16;1619063;86;20959;-79
2022/11/21 05:54:06;;;;;;;39.40;20.12;;;;;;;-1.90;78.86;99798.44;1621305;86;20958;-79
2022/11/21 05:56:51;;;;;;;38.67;21.52;;;;;;;-1.88;78.86;99794.27;1615792;85;20986;-79
2022/11/21 05:59:36;;;;;;;42.08;20.12;;;;;;;-1.83;78.92;99781.27;1624190;86;21010;-79
2022/11/21 06:05:24;;;;;;;36.73;19.20;;;;;;;-1.86;78.91;99779.95;1625400;86;21471;-80
2022/11/21 06:08:09;;;;;;;36.35;19.00;;;;;;;-1.86;78.85;99776.14;1624530;86;20954;-80
2022/11/21 06:10:54;;;;;;;42.15;20.70;;;;;;;-1.86;78.91;99779.95;1629107;86;21376;-80
2022/11/21 06:13:40;;;;;;;39.73;19.98;;;;;;;-1.85;78.92;99780.39;1627833;86;20946;-79
2022/11/21 06:16:25;;;;;;;36.20;18.77;;;;;;;-1.80;78.98;99780.48;1625168;86;21446;-79
2022/11/21 06:19:10;;;;;;;34.50;19.35;;;;;;;-1.79;78.89;99781.78;1627592;86;20974;-79
2022/11/21 06:21:55;;;;;;;39.75;20.35;;;;;;;-1.78;78.94;99783.91;1627240;86;20970;-80
2022/11/21 06:24:39;;;;;;;31.35;18.15;;;;;;;-1.76;78.93;99786.05;1625550;86;21376;-80
2022/11/21 06:27:25;;;;;;;36.53;19.63;;;;;;;-1.72;79.02;99792.48;1626974;86;20950;-80
2022/11/21 06:30:10;;;;;;;38.48;18.55;;;;;;;-1.65;79.06;99781.20;1626234;85;21157;-79
2022/11/21 06:32:55;;;;;;;44.80;20.17;;;;;;;-1.61;79.05;99785.09;1628630;86;21832;-79
2022/11/21 06:35:40;;;;;;;39.00;19.52;;;;;;;-1.55;79.06;99784.33;1629222;86;21577;-79
2022/11/21 06:38:27;;;;;;;37.73;19.40;;;;;;;-1.51;79.05;99787.36;1625292;86;20982;-80
2022/11/21 06:41:14;;;;;;;36.10;19.10;;;;;;;-1.48;79.04;99785.73;1632179;86;21541;-80
2022/11/21 06:44:02;;;;;;;34.63;18.90;;;;;;;-1.46;79.02;99790.42;1626895;85;20991;-79
2022/11/21 06:46:46;;;;;;;35.10;19.42;;;;;;;-1.45;79.01;99788.33;1628985;86;21026;-79
2022/11/21 06:49:31;;;;;;;37.30;19.33;;;;;;;-1.45;79.02;99787.06;1626715;86;21519;-79
2022/11/21 06:52:16;;;;;;;35.78;20.15;;;;;;;-1.41;79.07;99791.78;1627429;85;21673;-79
2022/11/21 06:55:02;;;;;;;36.55;19.82;;;;;;;-1.38;79.11;99794.38;1624604;86;21014;-79
2022/11/21 06:57:47;;;;;;;36.50;19.40;;;;;;;-1.38;79.03;99791.42;1627802;86;21006;-80
2022/11/21 07:00:32;;;;;;;32.53;18.60;;;;;;;-1.40;79.02;99801.95;1625106;86;20958;-79
2022/11/21 07:03:17;;;;;;;33.70;18.73;;;;;;;-1.42;79.00;99798.53;1623702;85;21029;-79
2022/11/21 07:06:03;;;;;;;35.28;19.82;;;;;;;-1.45;78.99;99798.47;1629922;85;21031;-79
2022/11/21 07:08:53;;;;;;;32.63;18.75;;;;;;;-1.41;79.11;99796.44;1614119;86;21018;-79
2022/11/21 07:11:38;;;;;;;35.20;19.62;;;;;;;-1.37;79.17;99793.14;1626898;86;20919;-79
2022/11/21 07:14:23;;;;;;;40.03;21.65;;;;;;;-1.31;79.15;99786.47;1632236;86;20959;-79
2022/11/21 07:17:13;;;;;;;48.33;24.43;;;;;;;-1.29;79.14;99789.89;1629808;86;21464;-79
2022/11/21 07:19:57;;;;;;;50.85;24.60;;;;;;;-1.25;79.16;99796.31;1630953;86;21409;-79
2022/11/21 07:22:42;;;;;;;56.83;26.75;;;;;;;-1.21;79.21;99798.48;1629326;86;20972;-79
2022/11/21 07:25:27;;;;;;;56.00;26.30;;;;;;;-1.17;79.19;99793.91;1628354;86;20983;-80
2022/11/21 07:28:12;;;;;;;53.33;25.92;;;;;;;-1.14;79.19;99796.09;1628529;86;20915;-79
2022/11/21 07:30:59;;;;;;;44.98;23.20;;;;;;;-1.10;79.23;99799.54;1630552;86;21067;-79
2022/11/21 07:33:45;;;;;;;46.80;24.15;;;;;;;-1.06;79.17;99802.16;1629821;86;20892;-79
2022/11/21 07:36:31;;;;;;;52.70;23.52;;;;;;;-1.03;79.17;99800.05;1629313;86;20996;-79
2022/11/21 07:39:16;;;;;;;;;;;;;;;-1.04;79.13;99794.57;1632603;86;21274;-79
2022/11/21 07:42:00;;;;;;;53.80;25.25;;;;;;;-1.04;79.14;99800.91;1630731;86;20128;-79
2022/11/21 07:44:45;;;;;;;47.78;24.30;;;;;;;-1.02;79.16;99800.49;1631335;85;21462;-79
2022/11/21 07:47:30;;;;;;;43.28;22.13;;;;;;;-1.06;79.11;99798.35;1633747;86;20901;-79
2022/11/21 07:50:15;;;;;;;45.52;22.75;;;;;;;-1.05;79.15;99794.98;1632848;86;21352;-79
2022/11/21 07:53:05;;;;;;;41.48;20.60;;;;;;;-1.03;79.16;99789.91;1628681;86;20939;-79
2022/11/21 07:55:50;;;;;;;42.08;21.80;;;;;;;-1.00;79.15;99786.16;1634843;86;20988;-79
2022/11/21 07:58:35;;;;;;;40.20;22.40;;;;;;;-0.98;79.14;99789.98;1628869;86;20906;-79
2022/11/21 08:01:20;;;;;;;39.40;21.87;;;;;;;-0.97;79.17;99787.48;1632199;85;21326;-79
2022/11/21 08:04:04;;;;;;;46.88;23.67;;;;;;;-0.94;79.15;99784.13;1630807;86;20904;-79
2022/11/21 08:06:49;;;;;;;48.20;24.30;;;;;;;-0.93;79.12;99780.36;1629008;86;21490;-79
2022/11/21 08:09:34;;;;;;;43.40;23.32;;;;;;;-0.93;79.12;99780.36;1631604;85;21430;-79
2022/11/21 08:12:19;;;;;;;43.45;23.73;;;;;;;-0.90;79.17;99786.75;1632825;86;21527;-80
2022/11/21 08:15:05;;;;;;;41.45;22.73;;;;;;;-0.88;79.13;99781.70;1630399;86;20903;-79
2022/11/21 08:17:50;;;;;;;42.58;23.45;;;;;;;-0.86;79.18;99782.58;1633578;86;21744;-79
2022/11/21 08:20:36;;;;;;;43.25;23.70;;;;;;;-0.86;79.12;99782.17;1633024;86;20911;-79
2022/11/21 08:23:21;;;;;;;46.05;23.12;;;;;;;-0.90;79.02;99786.75;1629953;85;21059;-79
2022/11/21 08:26:09;;;;;;;45.52;23.75;;;;;;;-0.89;79.11;99786.34;1630819;85;20920;-80
2022/11/21 08:28:54;;;;;;;43.55;23.52;;;;;;;-0.88;79.13;99790.17;1630092;86;20948;-79
2022/11/21 08:31:39;;;;;;;70.17;32.15;;;;;;;-0.87;79.14;99788.48;1632883;86;21242;-78
2022/11/21 08:34:24;;;;;;;85.70;43.02;;;;;;;-0.86;79.15;99786.39;1631430;85;20942;-80
2022/11/21 08:37:09;;;;;;;78.50;37.35;;;;;;;-0.93;79.05;99781.63;1631760;86;21530;-80
2022/11/21 08:39:54;;;;;;;58.42;31.10;;;;;;;-0.94;79.16;99784.13;1630632;85;20944;-81
2022/11/21 08:42:39;;;;;;;58.58;29.67;;;;;;;-0.93;79.16;99784.16;1632497;86;21558;-80
2022/11/21 08:45:24;;;;;;;44.70;23.85;;;;;;;-0.94;79.16;99777.80;1631290;86;20959;-80
2022/11/21 08:48:12;;;;;;;40.50;21.97;;;;;;;-0.92;79.21;99776.98;1632753;86;21421;-80
2022/11/21 08:50:57;;;;;;;48.92;25.00;;;;;;;-0.87;79.25;99777.92;1633419;86;20955;-80
2022/11/21 08:53:42;;;;;;;43.87;24.18;;;;;;;-0.85;79.17;99777.95;1633756;86;21451;-79
2022/11/21 08:56:28;;;;;;;45.80;23.40;;;;;;;-0.87;79.17;99775.38;1632103;86;21423;-79
2022/11/21 08:59:13;;;;;;;51.45;23.80;;;;;;;-0.86;79.21;99776.23;1632249;86;20964;-79
2022/11/21 09:01:58;;;;;;;52.00;22.13;;;;;;;-0.85;79.17;99787.68;1630787;85;20928;-79
2022/11/21 09:04:43;;;;;;;54.58;23.75;;;;;;;-0.84;79.23;99784.73;1632039;86;21281;-79
2022/11/21 09:07:28;;;;;;;52.33;23.90;;;;;;;-0.81;79.30;99788.59;1622444;86;21514;-80
2022/11/21 09:10:14;;;;;;;38.75;20.40;;;;;;;-0.79;79.21;99792.00;1621575;86;21052;-80
2022/11/21 09:12:59;;;;;;;36.58;20.00;;;;;;;-0.79;79.20;99792.86;1622788;86;21411;-80
2022/11/21 09:18:50;;;;;;;44.15;23.77;;;;;;;-0.75;79.25;99795.89;1622281;86;21451;-80
2022/11/21 09:21:34;;;;;;;44.05;22.65;;;;;;;-0.72;79.22;99790.86;1618935;85;20983;-80
2022/11/21 09:24:19;;;;;;;54.63;25.10;;;;;;;-0.69;79.25;99792.59;1621704;86;20950;-80
2022/11/21 09:27:04;;;;;;;43.48;23.15;;;;;;;-0.65;79.26;99783.34;1626635;85;21562;-80
2022/11/21 09:29:49;;;;;;;39.48;21.95;;;;;;;-0.63;79.28;99786.34;1624253;86;21054;-80
2022/11/21 09:32:35;;;;;;;39.65;22.20;;;;;;;-0.59;79.28;99789.78;1620104;86;21490;-81
2022/11/21 09:35:20;;;;;;;54.10;26.30;;;;;;;-0.56;79.26;99792.38;1624562;85;26385;-80
2022/11/21 09:38:05;;;;;;;51.08;24.95;;;;;;;-0.54;79.26;99788.17;1626832;85;21412;-80
2022/11/21 09:40:50;;;;;;;57.95;26.27;;;;;;;-0.54;79.26;99786.91;1624267;86;21035;-80
2022/11/21 09:43:46;;;;;;;58.35;24.77;;;;;;;-0.52;79.28;99786.52;1619427;86;20955;-80
2022/11/21 09:46:34;;;;;;;;;;;;;;;-0.51;79.26;99790.31;1628836;85;20972;-80
2022/11/21 09:49:21;;;;;;;46.53;24.12;;;;;;;-0.50;79.23;99788.63;1622806;86;20139;-80
2022/11/21 09:52:09;;;;;;;49.23;24.37;;;;;;;-0.52;79.30;99788.61;1622354;86;21567;-80
2022/11/21 09:54:58;;;;;;;49.15;23.90;;;;;;;-0.50;79.32;99788.21;1617452;86;20955;-80
2022/11/21 09:57:46;;;;;;;45.15;24.75;;;;;;;-0.49;79.30;99779.77;1623192;86;20967;-80
2022/11/21 10:00:31;;;;;;;48.63;25.65;;;;;;;-0.48;79.33;99777.66;1622782;86;21054;-80
2022/11/21 10:04:23;;;;;;;49.50;24.82;;;;;;;-0.44;79.39;99772.21;1609194;85;21408;-80
2022/11/21 10:07:28;;;;;;;45.90;23.07;;;;;;;-0.47;79.24;99774.30;1624841;86;21852;-79
2022/11/21 10:10:51;;;;;;;44.95;23.87;;;;;;;-0.47;79.36;99765.41;1630420;85;20929;-79
2022/11/21 10:13:59;;;;;;;46.23;24.67;;;;;;;-0.46;79.35;99759.91;1631470;86;21433;-80
2022/11/21 10:17:01;;;;;;;54.10;26.75;;;;;;;-0.42;79.39;99761.66;1630089;86;21385;-80
2022/11/21 10:19:54;;;;;;;48.42;26.00;;;;;;;-0.39;79.43;99759.17;1632290;86;21049;-79
2022/11/21 10:23:14;;;;;;;50.43;26.20;;;;;;;-0.36;79.47;99755.41;1629505;86;21476;-79
2022/11/21 10:26:42;;;;;;;49.13;25.62;;;;;;;-0.33;79.45;99747.83;1632512;86;20919;-80
2022/11/21 10:29:44;;;;;;;66.55;32.30;;;;;;;-0.30;79.43;99755.91;1632331;86;21003;-80
2022/11/21 10:32:39;;;;;;;56.98;31.37;;;;;;;-0.29;79.41;99760.15;1632470;86;21054;-79
2022/11/21 10:35:53;;;;;;;46.68;26.35;;;;;;;-0.29;79.41;99765.23;1631669;86;20920;-79
2022/11/21 10:38:41;;;;;;;55.10;30.40;;;;;;;-0.31;79.39;99770.29;1630376;86;20915;-79
2022/11/21 10:41:43;;;;;;;53.75;26.37;;;;;;;-0.32;79.41;99773.66;1630387;86;20977;-80
2022/11/21 10:47:36;;;;;;;51.60;28.60;;;;;;;-0.32;79.45;99760.96;1633647;84;20927;-79
2022/11/21 10:50:32;;;;;;;57.05;29.32;;;;;;;-0.31;79.45;99771.97;1632980;86;21543;-79
2022/11/21 10:56:26;;;;;;;60.20;29.85;;;;;;;-0.32;79.45;99756.30;1629370;85;20931;-79
2022/11/21 10:59:22;;;;;;;57.08;28.98;;;;;;;-0.31;79.49;99759.27;1632328;85;21347;-80
2022/11/21 11:02:21;;;;;;;66.40;33.88;;;;;;;-0.30;79.52;99757.17;1630960;85;21496;-79
2022/11/21 11:05:31;;;;;;;59.93;30.15;;;;;;;-0.28;79.53;99758.05;1632334;85;20940;-79
2022/11/21 11:08:15;;;;;;;62.05;33.08;;;;;;;-0.29;79.47;99755.07;1626473;85;20939;-79
2022/11/21 11:11:07;;;;;;;61.98;33.48;;;;;;;-0.29;79.51;99761.42;1621110;86;21494;-79
2022/11/21 11:14:09;;;;;;;66.92;36.65;;;;;;;-0.27;79.53;99764.84;1605401;87;21010;-79
2022/11/21 11:16:53;;;;;;;59.48;30.40;;;;;;;-0.27;79.53;99768.23;1619386;86;20963;-80
2022/11/21 11:19:38;;;;;;;62.48;28.85;;;;;;;-0.28;79.44;99759.32;1621138;86;21498;-80
2022/11/21 11:22:29;;;;;;;56.70;29.98;;;;;;;-0.28;79.46;99765.25;1620978;86;20930;-79
2022/11/21 11:25:14;;;;;;;59.42;31.35;;;;;;;-0.29;79.49;99764.81;1621210;86;20967;-80
2022/11/21 11:28:05;;;;;;;61.73;32.07;;;;;;;-0.28;79.52;99763.13;1619529;86;20962;-80
2022/11/21 11:30:52;;;;;;;65.32;31.77;;;;;;;-0.27;79.52;99765.69;1624140;86;21910;-80
2022/11/21 11:33:41;;;;;;;53.70;29.20;;;;;;;-0.27;79.49;99768.23;1622116;86;22018;-80
2022/11/21 11:36:44;;;;;;;85.10;40.43;;;;;;;-0.27;79.50;99770.77;1623502;86;21016;-80
2022/11/21 11:39:40;;;;;;;62.67;30.80;;;;;;;-0.28;79.49;99779.22;1622656;86;21463;-80
2022/11/21 11:50:22;;;;;;;59.90;29.27;;;;;;;-0.37;79.50;99791.38;1625810;86;20926;-80
2022/11/21 11:53:22;;;;;;;53.73;29.15;;;;;;;-0.40;79.48;99781.59;1622390;86;20998;-80
2022/11/21 11:56:21;;;;;;;57.53;32.17;;;;;;;-0.41;79.47;99773.53;1622853;86;20979;-80
2022/11/21 11:59:23;;;;;;;74.15;36.83;;;;;;;-0.41;79.51;99778.61;1623450;85;20978;-80
2022/11/21 12:02:18;;;;;;;59.88;30.80;;;;;;;-0.43;79.50;99773.92;1624587;87;20971;-80
2022/11/21 12:05:09;;;;;;;;;;;;;;;-0.44;79.52;99773.48;1625637;86;21446;-80
2022/11/21 12:08:21;;;;;;;53.50;26.55;;;;;;;-0.47;79.54;99788.67;1623269;86;20156;-79
2022/11/21 12:18:21;;;;;;;61.83;32.58;;;;;;;-0.52;79.57;99795.40;1628198;84;20988;-80
2022/11/21 12:21:19;;;;;;;61.53;30.62;;;;;;;-0.52;79.58;99801.30;1625488;86;21541;-80
2022/11/21 12:24:07;;;;;;;59.03;30.82;;;;;;;-0.54;79.60;99805.95;1621618;86;21559;-80
2022/11/21 12:27:24;;;;;;;65.78;31.62;;;;;;;-0.54;79.62;99813.56;1603158;86;21325;-80
2022/11/21 12:30:50;;;;;;;65.78;32.58;;;;;;;-0.55;79.67;99814.39;1623773;86;20994;-81
2022/11/21 12:33:40;;;;;;;64.05;32.42;;;;;;;-0.53;79.64;99807.66;1622174;84;20958;-80
2022/11/21 12:37:08;;;;;;;75.95;37.35;;;;;;;-0.52;79.70;99806.83;1623974;86;20954;-80
2022/11/21 12:40:25;;;;;;;75.37;39.58;;;;;;;-0.52;79.72;99798.77;1621310;85;20946;-80
2022/11/21 12:43:33;;;;;;;71.28;35.25;;;;;;;-0.47;79.74;99811.53;1627748;85;20983;-80
2022/11/21 12:46:27;;;;;;;77.50;37.20;;;;;;;-0.47;79.70;99800.09;1621032;86;20942;-80
2022/11/21 12:55:44;;;;;;;78.67;41.00;;;;;;;-0.49;79.71;99805.57;1617071;86;21014;-80
2022/11/21 12:58:36;;;;;;;72.15;36.33;;;;;;;-0.50;79.73;99805.13;1620673;86;20983;-80
2022/11/21 13:01:47;;;;;;;71.95;39.55;;;;;;;-0.50;79.76;99807.67;1621138;86;20942;-80
2022/11/21 13:04:36;;;;;;;116.33;54.13;;;;;;;-0.46;79.78;99810.70;1621148;86;21297;-80
2022/11/21 13:07:23;;;;;;;88.55;44.75;;;;;;;-0.46;79.81;99806.89;1619702;86;20987;-80
2022/11/21 13:10:14;;;;;;;98.12;49.73;;;;;;;-0.45;79.81;99810.72;1606629;87;20946;-80
2022/11/21 13:13:22;;;;;;;76.05;40.85;;;;;;;-0.43;79.85;99800.17;1622257;85;20934;-80
2022/11/21 13:16:13;;;;;;;81.10;40.73;;;;;;;-0.43;79.79;99796.36;1621194;86;20971;-80
2022/11/21 13:18:57;;;;;;;77.55;40.10;;;;;;;-0.39;79.84;99795.58;1609833;85;20967;-80
2022/11/21 13:21:50;;;;;;;70.20;36.03;;;;;;;-0.35;79.85;99800.28;1609707;87;20943;-80
2022/11/21 13:24:49;;;;;;;80.30;40.35;;;;;;;-0.34;79.87;99803.27;1610130;86;20928;-80
2022/11/21 13:27:39;;;;;;;85.97;42.85;;;;;;;-0.31;79.89;99816.02;1610492;87;21049;-81
2022/11/21 13:30:24;;;;;;;72.37;38.23;;;;;;;-0.30;79.88;99818.98;1608433;87;21022;-81
2022/11/21 13:33:16;;;;;;;119.80;57.93;;;;;;;-0.31;79.85;99820.23;1610457;85;21023;-81
2022/11/21 13:36:16;;;;;;;73.35;38.00;;;;;;;-0.30;79.88;99824.48;1600756;87;21491;-81
2022/11/21 13:39:06;;;;;;;91.63;46.15;;;;;;;-0.30;79.84;99822.80;1608356;87;20943;-81